N78AL LFBO-LEMG
Flight info
| Callsign | N78AL |
|---|---|
| Flight time | 1h 39m |
| Altitude | 39000 |
| Route | GAUDE DCT TIVLI N869 BLN |
| Aircraft | CL60/M-SADE3FGHIJ3J4J7P2RWXY/HB1D1 |
Departure
| Time | 2026-04-30 09:36 |
|---|---|
| Airport | Toulouse-Blagnac Airport (LFBO) |
Arrival
| Time | 2026-04-30 11:15 |
|---|---|
| Airport | Málaga-Costa del Sol Airport (LEMG) |
| Time | Latitude | Longitude | Altitude | Speed | Heading |
|---|---|---|---|---|---|
| 2026-04-30 09:17 | 43.62139 | 1.38024 | 504 ft | 0 kts | 232° |
| 2026-04-30 09:29 | 43.62139 | 1.38023 | 504 ft | 0 kts | 232° |
| 2026-04-30 09:29 | 43.62125 | 1.38006 | 504 ft | 0 kts | 201° |
| 2026-04-30 09:29 | 43.62108 | 1.38007 | 504 ft | 4 kts | 154° |
| 2026-04-30 09:29 | 43.62075 | 1.38041 | 504 ft | 7 kts | 143° |
| 2026-04-30 09:30 | 43.62013 | 1.38052 | 504 ft | 10 kts | 181° |
| 2026-04-30 09:30 | 43.61939 | 1.38108 | 504 ft | 13 kts | 151° |
| 2026-04-30 09:30 | 43.61862 | 1.38112 | 504 ft | 10 kts | 202° |
| 2026-04-30 09:30 | 43.61858 | 1.38026 | 504 ft | 12 kts | 316° |
| 2026-04-30 09:31 | 43.61939 | 1.37941 | 504 ft | 16 kts | 323° |
| 2026-04-30 09:31 | 43.62038 | 1.37838 | 504 ft | 19 kts | 322° |
| 2026-04-30 09:31 | 43.62162 | 1.37712 | 501 ft | 23 kts | 323° |
| 2026-04-30 09:31 | 43.62307 | 1.37566 | 498 ft | 27 kts | 323° |
| 2026-04-30 09:32 | 43.62467 | 1.37394 | 496 ft | 30 kts | 324° |
| 2026-04-30 09:32 | 43.62636 | 1.37220 | 495 ft | 31 kts | 323° |
| 2026-04-30 09:32 | 43.62818 | 1.37030 | 495 ft | 33 kts | 321° |
| 2026-04-30 09:32 | 43.63006 | 1.36832 | 495 ft | 33 kts | 322° |
| 2026-04-30 09:33 | 43.63183 | 1.36650 | 498 ft | 29 kts | 323° |
| 2026-04-30 09:33 | 43.63353 | 1.36476 | 498 ft | 30 kts | 322° |
| 2026-04-30 09:33 | 43.63526 | 1.36295 | 497 ft | 30 kts | 323° |
| 2026-04-30 09:33 | 43.63683 | 1.36132 | 494 ft | 27 kts | 322° |
| 2026-04-30 09:34 | 43.63789 | 1.36019 | 494 ft | 8 kts | 320° |
| 2026-04-30 09:34 | 43.63811 | 1.35951 | 494 ft | 10 kts | 260° |
| 2026-04-30 09:34 | 43.63768 | 1.35856 | 494 ft | 13 kts | 232° |
| 2026-04-30 09:34 | 43.63686 | 1.35815 | 494 ft | 12 kts | 136° |
| 2026-04-30 09:35 | 43.63615 | 1.35896 | 495 ft | 14 kts | 141° |
| 2026-04-30 09:35 | 43.63394 | 1.36131 | 500 ft | 84 kts | 143° |
| 2026-04-30 09:35 | 43.62695 | 1.36856 | 511 ft | 153 kts | 140° |
| 2026-04-30 09:35 | 43.61792 | 1.37799 | 898 ft | 164 kts | 139° |
| 2026-04-30 09:36 | 43.60852 | 1.38788 | 1353 ft | 187 kts | 143° |
| 2026-04-30 09:36 | 43.59804 | 1.39812 | 1680 ft | 180 kts | 144° |
| 2026-04-30 09:36 | 43.58775 | 1.40814 | 2106 ft | 180 kts | 144° |
| 2026-04-30 09:36 | 43.57750 | 1.41813 | 2520 ft | 181 kts | 144° |
| 2026-04-30 09:37 | 43.56725 | 1.42814 | 2928 ft | 183 kts | 144° |
| 2026-04-30 09:37 | 43.55677 | 1.43837 | 3344 ft | 184 kts | 144° |
| 2026-04-30 09:37 | 43.54625 | 1.44866 | 3759 ft | 188 kts | 144° |
| 2026-04-30 09:37 | 43.53514 | 1.45951 | 4225 ft | 200 kts | 144° |
| 2026-04-30 09:38 | 43.52362 | 1.47079 | 4769 ft | 208 kts | 144° |
| 2026-04-30 09:38 | 43.51172 | 1.48243 | 5358 ft | 212 kts | 144° |
| 2026-04-30 09:38 | 43.49941 | 1.49389 | 5961 ft | 222 kts | 151° |
| 2026-04-30 09:38 | 43.48361 | 1.49756 | 6464 ft | 248 kts | 189° |
| 2026-04-30 09:39 | 43.46806 | 1.48665 | 6836 ft | 251 kts | 226° |
| 2026-04-30 09:39 | 43.45849 | 1.46663 | 7207 ft | 249 kts | 240° |
| 2026-04-30 09:39 | 43.44994 | 1.44612 | 7573 ft | 253 kts | 239° |
| 2026-04-30 09:39 | 43.44045 | 1.42436 | 8008 ft | 277 kts | 238° |
| 2026-04-30 09:40 | 43.42988 | 1.40120 | 8558 ft | 292 kts | 237° |
| 2026-04-30 09:40 | 43.41861 | 1.37771 | 9163 ft | 297 kts | 236° |
| 2026-04-30 09:40 | 43.40673 | 1.35421 | 9787 ft | 300 kts | 234° |
| 2026-04-30 09:40 | 43.39437 | 1.33097 | 10422 ft | 303 kts | 233° |
| 2026-04-30 09:41 | 43.38138 | 1.30777 | 11072 ft | 305 kts | 232° |
| 2026-04-30 09:41 | 43.36789 | 1.28489 | 11735 ft | 317 kts | 231° |
| 2026-04-30 09:41 | 43.35324 | 1.26130 | 12472 ft | 330 kts | 229° |
| 2026-04-30 09:41 | 43.33769 | 1.23803 | 13256 ft | 337 kts | 228° |
| 2026-04-30 09:42 | 43.32158 | 1.21424 | 14076 ft | 341 kts | 230° |
| 2026-04-30 09:42 | 43.30885 | 1.18679 | 14895 ft | 343 kts | 249° |
| 2026-04-30 09:42 | 43.30352 | 1.15532 | 15714 ft | 345 kts | 268° |
| 2026-04-30 09:42 | 43.30402 | 1.12238 | 16568 ft | 348 kts | 274° |
| 2026-04-30 09:43 | 43.30507 | 1.08893 | 17453 ft | 351 kts | 273° |
| 2026-04-30 09:43 | 43.30606 | 1.05548 | 18344 ft | 354 kts | 273° |
| 2026-04-30 09:43 | 43.30705 | 1.02168 | 19248 ft | 357 kts | 273° |
| 2026-04-30 09:43 | 43.30724 | 0.98761 | 20152 ft | 360 kts | 266° |
| 2026-04-30 09:44 | 43.30152 | 0.95415 | 21044 ft | 364 kts | 250° |
| 2026-04-30 09:44 | 43.28862 | 0.92409 | 21932 ft | 368 kts | 232° |
| 2026-04-30 09:44 | 43.26983 | 0.90064 | 22797 ft | 370 kts | 218° |
| 2026-04-30 09:44 | 43.24891 | 0.88015 | 23672 ft | 370 kts | 218° |
| 2026-04-30 09:45 | 43.22796 | 0.85959 | 24536 ft | 369 kts | 218° |
| 2026-04-30 09:45 | 43.20715 | 0.83916 | 25362 ft | 368 kts | 218° |
| 2026-04-30 09:45 | 43.18641 | 0.81880 | 26061 ft | 371 kts | 218° |
| 2026-04-30 09:45 | 43.16483 | 0.79763 | 26372 ft | 384 kts | 218° |
| 2026-04-30 09:46 | 43.14259 | 0.77580 | 26435 ft | 402 kts | 218° |
| 2026-04-30 09:46 | 43.11946 | 0.75314 | 26439 ft | 417 kts | 218° |
| 2026-04-30 09:46 | 43.09552 | 0.72972 | 26443 ft | 422 kts | 218° |
| 2026-04-30 09:46 | 43.07172 | 0.70649 | 26447 ft | 420 kts | 218° |
| 2026-04-30 09:47 | 43.04813 | 0.68348 | 26448 ft | 418 kts | 218° |
| 2026-04-30 09:47 | 43.02441 | 0.65921 | 26606 ft | 427 kts | 224° |
| 2026-04-30 09:47 | 43.00516 | 0.62877 | 27176 ft | 423 kts | 239° |
| 2026-04-30 09:47 | 42.99260 | 0.59269 | 27785 ft | 419 kts | 255° |
| 2026-04-30 09:48 | 42.98532 | 0.55437 | 28269 ft | 420 kts | 259° |
| 2026-04-30 09:48 | 42.97840 | 0.51503 | 28743 ft | 422 kts | 259° |
| 2026-04-30 09:48 | 42.97150 | 0.47622 | 29166 ft | 425 kts | 259° |
| 2026-04-30 09:48 | 42.96440 | 0.43635 | 29572 ft | 429 kts | 259° |
| 2026-04-30 09:49 | 42.95728 | 0.39649 | 29970 ft | 431 kts | 259° |
| 2026-04-30 09:49 | 42.95013 | 0.35652 | 30361 ft | 434 kts | 259° |
| 2026-04-30 09:49 | 42.94295 | 0.31650 | 30735 ft | 436 kts | 258° |
| 2026-04-30 09:49 | 42.93566 | 0.27591 | 31118 ft | 438 kts | 258° |
| 2026-04-30 09:50 | 42.92843 | 0.23580 | 31469 ft | 440 kts | 258° |
| 2026-04-30 09:50 | 42.92106 | 0.19495 | 31805 ft | 442 kts | 258° |
| 2026-04-30 09:50 | 42.91362 | 0.15386 | 32115 ft | 444 kts | 258° |
| 2026-04-30 09:50 | 42.90620 | 0.11292 | 32420 ft | 445 kts | 258° |
| 2026-04-30 09:51 | 42.89888 | 0.07265 | 32697 ft | 447 kts | 258° |
| 2026-04-30 09:51 | 42.89137 | 0.03139 | 32944 ft | 448 kts | 258° |
| 2026-04-30 09:51 | 42.88375 | -0.01034 | 33186 ft | 450 kts | 258° |
| 2026-04-30 09:51 | 42.87613 | -0.05199 | 33421 ft | 451 kts | 258° |
| 2026-04-30 09:52 | 42.86848 | -0.09372 | 33639 ft | 452 kts | 258° |
| 2026-04-30 09:52 | 42.86092 | -0.13485 | 33854 ft | 453 kts | 258° |
| 2026-04-30 09:52 | 42.85328 | -0.17629 | 34105 ft | 453 kts | 258° |
| 2026-04-30 09:52 | 42.84571 | -0.21731 | 34417 ft | 451 kts | 258° |
| 2026-04-30 09:53 | 42.83778 | -0.25911 | 34737 ft | 449 kts | 256° |
| 2026-04-30 09:53 | 42.82767 | -0.29885 | 35069 ft | 449 kts | 250° |
| 2026-04-30 09:53 | 42.81408 | -0.33751 | 35395 ft | 448 kts | 244° |
| 2026-04-30 09:53 | 42.79768 | -0.37321 | 35670 ft | 449 kts | 237° |
| 2026-04-30 09:54 | 42.77811 | -0.40672 | 35936 ft | 450 kts | 231° |
| 2026-04-30 09:54 | 42.75596 | -0.43689 | 36197 ft | 451 kts | 225° |
| 2026-04-30 09:54 | 42.73141 | -0.46345 | 36390 ft | 454 kts | 218° |
| 2026-04-30 09:54 | 42.70514 | -0.48579 | 36571 ft | 456 kts | 212° |
| 2026-04-30 09:55 | 42.67598 | -0.50461 | 36736 ft | 459 kts | 206° |
| 2026-04-30 09:55 | 42.64619 | -0.52037 | 36897 ft | 460 kts | 205° |
| 2026-04-30 09:55 | 42.61631 | -0.53602 | 37053 ft | 460 kts | 205° |
| 2026-04-30 09:55 | 42.58616 | -0.55181 | 37232 ft | 460 kts | 205° |
| 2026-04-30 09:56 | 42.55630 | -0.56744 | 37397 ft | 459 kts | 205° |
| 2026-04-30 09:56 | 42.52626 | -0.58315 | 37554 ft | 459 kts | 205° |
| 2026-04-30 09:56 | 42.49633 | -0.59879 | 37707 ft | 459 kts | 205° |
| 2026-04-30 09:56 | 42.46642 | -0.61440 | 37837 ft | 459 kts | 205° |
| 2026-04-30 09:57 | 42.43635 | -0.63009 | 37973 ft | 459 kts | 205° |
| 2026-04-30 09:57 | 42.40649 | -0.64564 | 38101 ft | 459 kts | 205° |
| 2026-04-30 09:57 | 42.37671 | -0.66115 | 38215 ft | 459 kts | 205° |
| 2026-04-30 09:57 | 42.34686 | -0.67667 | 38327 ft | 459 kts | 205° |
| 2026-04-30 09:58 | 42.31690 | -0.69223 | 38455 ft | 459 kts | 205° |
| 2026-04-30 09:58 | 42.28707 | -0.70771 | 38563 ft | 459 kts | 205° |
| 2026-04-30 09:58 | 42.25722 | -0.72319 | 38681 ft | 459 kts | 205° |
| 2026-04-30 09:58 | 42.22728 | -0.73870 | 38787 ft | 459 kts | 205° |
| 2026-04-30 09:59 | 42.16745 | -0.76964 | 38990 ft | 459 kts | 205° |
| 2026-04-30 09:59 | 42.10748 | -0.80060 | 39030 ft | 461 kts | 205° |
| 2026-04-30 10:00 | 42.01762 | -0.84687 | 39033 ft | 460 kts | 205° |
| 2026-04-30 10:01 | 41.92762 | -0.89306 | 39034 ft | 459 kts | 205° |
| 2026-04-30 10:02 | 41.83786 | -0.93899 | 39030 ft | 459 kts | 205° |
| 2026-04-30 10:02 | 41.77800 | -0.96955 | 39027 ft | 459 kts | 205° |
| 2026-04-30 10:03 | 41.71851 | -0.99986 | 39026 ft | 459 kts | 205° |
| 2026-04-30 10:03 | 41.65952 | -1.03202 | 39033 ft | 455 kts | 212° |
| 2026-04-30 10:04 | 41.60648 | -1.07809 | 39027 ft | 451 kts | 218° |
| 2026-04-30 10:04 | 41.55476 | -1.12559 | 39028 ft | 452 kts | 218° |
| 2026-04-30 10:05 | 41.50248 | -1.17351 | 39030 ft | 452 kts | 218° |
| 2026-04-30 10:05 | 41.45063 | -1.22094 | 39035 ft | 451 kts | 218° |
| 2026-04-30 10:06 | 41.39881 | -1.26825 | 39043 ft | 451 kts | 218° |
| 2026-04-30 10:06 | 41.34663 | -1.31580 | 39051 ft | 451 kts | 218° |
| 2026-04-30 10:07 | 41.29450 | -1.36322 | 39057 ft | 451 kts | 218° |
| 2026-04-30 10:07 | 41.25160 | -1.40219 | 39062 ft | 451 kts | 219° |
| 2026-04-30 10:10 | 41.24882 | -1.40471 | 39062 ft | 451 kts | 219° |
| 2026-04-30 10:10 | 41.19679 | -1.45194 | 39064 ft | 451 kts | 219° |
| 2026-04-30 10:11 | 41.14468 | -1.49912 | 39066 ft | 451 kts | 219° |
| 2026-04-30 10:11 | 41.09256 | -1.54619 | 39069 ft | 451 kts | 219° |
| 2026-04-30 10:12 | 41.04045 | -1.59318 | 39073 ft | 451 kts | 219° |
| 2026-04-30 10:12 | 40.98816 | -1.64023 | 39077 ft | 451 kts | 218° |
| 2026-04-30 10:13 | 40.93601 | -1.68708 | 39080 ft | 452 kts | 218° |
| 2026-04-30 10:13 | 40.88419 | -1.73352 | 39082 ft | 452 kts | 218° |
| 2026-04-30 10:14 | 40.83205 | -1.78016 | 39084 ft | 451 kts | 218° |
| 2026-04-30 10:14 | 40.75394 | -1.84987 | 39086 ft | 451 kts | 218° |
| 2026-04-30 10:15 | 40.70182 | -1.89624 | 39090 ft | 451 kts | 218° |
| 2026-04-30 10:15 | 40.64932 | -1.94286 | 39092 ft | 452 kts | 218° |
| 2026-04-30 10:16 | 40.59712 | -1.98912 | 39094 ft | 452 kts | 218° |
| 2026-04-30 10:17 | 40.51867 | -2.05847 | 39093 ft | 452 kts | 218° |
| 2026-04-30 10:17 | 40.43997 | -2.12785 | 39085 ft | 452 kts | 218° |
| 2026-04-30 10:18 | 40.38753 | -2.17396 | 39081 ft | 452 kts | 218° |
| 2026-04-30 10:19 | 40.30873 | -2.24312 | 39078 ft | 452 kts | 218° |
| 2026-04-30 10:19 | 40.25631 | -2.28901 | 39076 ft | 452 kts | 218° |
| 2026-04-30 10:20 | 40.20369 | -2.33500 | 39070 ft | 452 kts | 218° |
| 2026-04-30 10:20 | 40.12515 | -2.40347 | 39067 ft | 452 kts | 218° |
| 2026-04-30 10:21 | 40.07256 | -2.44921 | 39067 ft | 451 kts | 218° |
| 2026-04-30 10:21 | 40.02001 | -2.49483 | 39069 ft | 452 kts | 218° |
| 2026-04-30 10:22 | 39.96730 | -2.54051 | 39069 ft | 452 kts | 218° |
| 2026-04-30 10:22 | 39.91452 | -2.58615 | 39065 ft | 452 kts | 218° |
| 2026-04-30 10:23 | 39.86213 | -2.63137 | 39063 ft | 452 kts | 218° |
| 2026-04-30 10:23 | 39.86160 | -2.63183 | 39063 ft | 452 kts | 218° |
| 2026-04-30 10:25 | 39.85498 | -2.63754 | 39063 ft | 452 kts | 218° |
| 2026-04-30 10:26 | 39.83308 | -2.65642 | 39062 ft | 452 kts | 217° |
| 2026-04-30 10:26 | 39.80935 | -2.67686 | 39062 ft | 452 kts | 217° |
| 2026-04-30 10:27 | 39.79304 | -2.69089 | 39061 ft | 452 kts | 217° |
| 2026-04-30 10:28 | 39.76575 | -2.71436 | 39060 ft | 452 kts | 217° |
| 2026-04-30 10:33 | 39.75545 | -2.72322 | 39060 ft | 452 kts | 217° |
| 2026-04-30 10:34 | 39.70287 | -2.76838 | 39058 ft | 452 kts | 217° |
| 2026-04-30 10:34 | 39.65044 | -2.81337 | 39055 ft | 452 kts | 217° |
| 2026-04-30 10:35 | 39.59732 | -2.85879 | 39053 ft | 452 kts | 217° |
| 2026-04-30 10:35 | 39.54469 | -2.90373 | 39052 ft | 452 kts | 217° |
| 2026-04-30 10:36 | 39.49186 | -2.94875 | 39051 ft | 452 kts | 217° |
| 2026-04-30 10:36 | 39.43918 | -2.99357 | 39050 ft | 452 kts | 217° |
| 2026-04-30 10:37 | 39.38430 | -3.03471 | 39051 ft | 457 kts | 207° |
| 2026-04-30 10:37 | 39.32460 | -3.06411 | 39048 ft | 459 kts | 205° |
| 2026-04-30 10:38 | 39.26438 | -3.09335 | 39048 ft | 459 kts | 205° |
| 2026-04-30 10:38 | 39.20420 | -3.12252 | 39049 ft | 459 kts | 205° |
| 2026-04-30 10:39 | 39.14415 | -3.15159 | 39051 ft | 459 kts | 205° |
| 2026-04-30 10:39 | 39.08399 | -3.18068 | 39052 ft | 459 kts | 205° |
| 2026-04-30 10:40 | 39.02396 | -3.20965 | 39052 ft | 459 kts | 205° |
| 2026-04-30 10:40 | 38.96401 | -3.23853 | 39053 ft | 459 kts | 205° |
| 2026-04-30 10:41 | 38.90382 | -3.26748 | 39053 ft | 459 kts | 205° |
| 2026-04-30 10:41 | 38.84390 | -3.29625 | 39054 ft | 459 kts | 205° |
| 2026-04-30 10:42 | 38.78407 | -3.32492 | 39055 ft | 459 kts | 205° |
| 2026-04-30 10:42 | 38.72389 | -3.35371 | 39056 ft | 459 kts | 205° |
| 2026-04-30 10:43 | 38.66382 | -3.38240 | 39056 ft | 459 kts | 205° |
| 2026-04-30 10:43 | 38.60348 | -3.41117 | 39056 ft | 459 kts | 205° |
| 2026-04-30 10:44 | 38.54358 | -3.43968 | 39057 ft | 459 kts | 205° |
| 2026-04-30 10:44 | 38.48302 | -3.46845 | 39057 ft | 459 kts | 205° |
| 2026-04-30 10:45 | 38.42322 | -3.49681 | 39052 ft | 459 kts | 205° |
| 2026-04-30 10:45 | 38.36274 | -3.52544 | 39047 ft | 459 kts | 205° |
| 2026-04-30 10:46 | 38.30253 | -3.55390 | 39042 ft | 459 kts | 205° |
| 2026-04-30 10:46 | 38.24237 | -3.58227 | 39038 ft | 459 kts | 205° |
| 2026-04-30 10:47 | 38.18444 | -3.61632 | 39039 ft | 452 kts | 216° |
| 2026-04-30 10:47 | 38.13559 | -3.66577 | 39036 ft | 445 kts | 229° |
| 2026-04-30 10:48 | 38.09740 | -3.72743 | 38593 ft | 449 kts | 239° |
| 2026-04-30 10:48 | 38.07990 | -3.76017 | 38057 ft | 448 kts | 239° |
| 2026-04-30 10:48 | 38.06250 | -3.79257 | 37486 ft | 446 kts | 238° |
| 2026-04-30 10:49 | 38.04491 | -3.82530 | 36898 ft | 445 kts | 238° |
| 2026-04-30 10:49 | 38.02747 | -3.85774 | 36315 ft | 445 kts | 238° |
| 2026-04-30 10:49 | 38.00993 | -3.89034 | 35697 ft | 446 kts | 238° |
| 2026-04-30 10:49 | 37.99245 | -3.92278 | 35122 ft | 449 kts | 238° |
| 2026-04-30 10:50 | 37.97465 | -3.95579 | 34521 ft | 450 kts | 238° |
| 2026-04-30 10:50 | 37.95686 | -3.98874 | 33919 ft | 453 kts | 238° |
| 2026-04-30 10:50 | 37.93896 | -4.02186 | 33317 ft | 455 kts | 238° |
| 2026-04-30 10:50 | 37.92126 | -4.05458 | 32721 ft | 454 kts | 238° |
| 2026-04-30 10:51 | 37.90324 | -4.08784 | 32112 ft | 451 kts | 238° |
| 2026-04-30 10:51 | 37.88556 | -4.12044 | 31516 ft | 447 kts | 238° |
| 2026-04-30 10:51 | 37.86785 | -4.15306 | 30919 ft | 444 kts | 238° |
| 2026-04-30 10:51 | 37.85055 | -4.18490 | 30336 ft | 440 kts | 238° |
| 2026-04-30 10:52 | 37.83320 | -4.21679 | 29750 ft | 437 kts | 238° |
| 2026-04-30 10:52 | 37.81604 | -4.24832 | 29170 ft | 433 kts | 238° |
| 2026-04-30 10:52 | 37.79911 | -4.27939 | 28600 ft | 429 kts | 238° |
| 2026-04-30 10:52 | 37.78224 | -4.31031 | 28033 ft | 425 kts | 238° |
| 2026-04-30 10:53 | 37.76533 | -4.34130 | 27463 ft | 421 kts | 238° |
| 2026-04-30 10:53 | 37.74878 | -4.37158 | 26908 ft | 417 kts | 238° |
| 2026-04-30 10:53 | 37.73247 | -4.40142 | 26358 ft | 413 kts | 238° |
| 2026-04-30 10:53 | 37.71600 | -4.43150 | 25801 ft | 409 kts | 238° |
| 2026-04-30 10:54 | 37.69999 | -4.46074 | 25257 ft | 406 kts | 237° |
| 2026-04-30 10:54 | 37.68392 | -4.49003 | 24707 ft | 402 kts | 237° |
| 2026-04-30 10:54 | 37.66806 | -4.51893 | 24152 ft | 398 kts | 237° |
| 2026-04-30 10:54 | 37.65239 | -4.54745 | 23603 ft | 394 kts | 237° |
| 2026-04-30 10:55 | 37.63678 | -4.57586 | 23054 ft | 390 kts | 237° |
| 2026-04-30 10:55 | 37.62136 | -4.60388 | 22510 ft | 387 kts | 237° |
| 2026-04-30 10:55 | 37.60601 | -4.63172 | 21967 ft | 384 kts | 237° |
| 2026-04-30 10:55 | 37.59102 | -4.65889 | 21437 ft | 381 kts | 237° |
| 2026-04-30 10:56 | 37.57581 | -4.68640 | 20904 ft | 378 kts | 237° |
| 2026-04-30 10:56 | 37.56037 | -4.71281 | 20379 ft | 376 kts | 230° |
| 2026-04-30 10:56 | 37.53915 | -4.73236 | 19819 ft | 377 kts | 206° |
| 2026-04-30 10:56 | 37.51496 | -4.74529 | 19275 ft | 373 kts | 209° |
| 2026-04-30 10:57 | 37.49365 | -4.76357 | 18740 ft | 368 kts | 219° |
| 2026-04-30 10:57 | 37.47359 | -4.78365 | 18225 ft | 366 kts | 222° |
| 2026-04-30 10:57 | 37.45461 | -4.80525 | 17712 ft | 363 kts | 225° |
| 2026-04-30 10:57 | 37.43604 | -4.82676 | 17209 ft | 361 kts | 224° |
| 2026-04-30 10:58 | 37.41765 | -4.84798 | 16712 ft | 358 kts | 224° |
| 2026-04-30 10:58 | 37.39936 | -4.86906 | 16217 ft | 356 kts | 224° |
| 2026-04-30 10:58 | 37.38117 | -4.88999 | 15726 ft | 353 kts | 224° |
| 2026-04-30 10:58 | 37.36304 | -4.91081 | 15237 ft | 351 kts | 224° |
| 2026-04-30 10:59 | 37.34496 | -4.93155 | 14749 ft | 348 kts | 224° |
| 2026-04-30 10:59 | 37.32716 | -4.95195 | 14268 ft | 346 kts | 224° |
| 2026-04-30 10:59 | 37.30957 | -4.97208 | 13794 ft | 344 kts | 224° |
| 2026-04-30 10:59 | 37.29170 | -4.99251 | 13311 ft | 341 kts | 224° |
| 2026-04-30 11:00 | 37.27321 | -5.01100 | 12833 ft | 340 kts | 212° |
| 2026-04-30 11:00 | 37.25134 | -5.02195 | 12344 ft | 339 kts | 193° |
| 2026-04-30 11:00 | 37.22774 | -5.02416 | 11857 ft | 337 kts | 180° |
| 2026-04-30 11:00 | 37.20447 | -5.02374 | 11396 ft | 336 kts | 180° |
| 2026-04-30 11:01 | 37.18116 | -5.02341 | 10938 ft | 332 kts | 180° |
| 2026-04-30 11:01 | 37.15813 | -5.02310 | 10477 ft | 325 kts | 179° |
| 2026-04-30 11:01 | 37.13556 | -5.02279 | 10015 ft | 320 kts | 179° |
| 2026-04-30 11:01 | 37.11335 | -5.02248 | 9552 ft | 315 kts | 179° |
| 2026-04-30 11:02 | 37.09159 | -5.02218 | 9092 ft | 310 kts | 179° |
| 2026-04-30 11:02 | 37.07008 | -5.02189 | 8630 ft | 306 kts | 179° |
| 2026-04-30 11:02 | 37.04859 | -5.02159 | 8163 ft | 302 kts | 179° |
| 2026-04-30 11:02 | 37.02772 | -5.02130 | 7705 ft | 299 kts | 179° |
| 2026-04-30 11:03 | 37.00678 | -5.02101 | 7254 ft | 294 kts | 179° |
| 2026-04-30 11:03 | 36.98682 | -5.02073 | 7062 ft | 281 kts | 179° |
| 2026-04-30 11:03 | 36.96806 | -5.01736 | 7048 ft | 261 kts | 161° |
| 2026-04-30 11:04 | 36.94087 | -4.99164 | 7047 ft | 244 kts | 124° |
| 2026-04-30 11:04 | 36.93336 | -4.97234 | 7040 ft | 244 kts | 106° |
| 2026-04-30 11:04 | 36.93094 | -4.95143 | 7039 ft | 244 kts | 88° |
| 2026-04-30 11:04 | 36.93491 | -4.93092 | 7037 ft | 244 kts | 63° |
| 2026-04-30 11:05 | 36.94536 | -4.91449 | 7037 ft | 244 kts | 38° |
| 2026-04-30 11:05 | 36.96053 | -4.90517 | 7036 ft | 245 kts | 12° |
| 2026-04-30 11:05 | 36.97760 | -4.90381 | 7035 ft | 245 kts | 359° |
| 2026-04-30 11:05 | 36.99498 | -4.90259 | 7013 ft | 246 kts | 16° |
| 2026-04-30 11:06 | 37.00895 | -4.89126 | 6842 ft | 239 kts | 53° |
| 2026-04-30 11:06 | 37.01486 | -4.87197 | 6203 ft | 250 kts | 91° |
| 2026-04-30 11:06 | 37.01244 | -4.85083 | 6106 ft | 235 kts | 101° |
| 2026-04-30 11:06 | 37.00787 | -4.83188 | 6030 ft | 222 kts | 117° |
| 2026-04-30 11:07 | 36.99894 | -4.81647 | 5902 ft | 216 kts | 136° |
| 2026-04-30 11:07 | 36.98661 | -4.80571 | 5775 ft | 214 kts | 155° |
| 2026-04-30 11:07 | 36.97250 | -4.80055 | 5854 ft | 215 kts | 172° |
| 2026-04-30 11:07 | 36.95736 | -4.79964 | 5945 ft | 209 kts | 179° |
| 2026-04-30 11:08 | 36.94229 | -4.79958 | 5910 ft | 218 kts | 179° |
| 2026-04-30 11:08 | 36.92770 | -4.79779 | 5900 ft | 208 kts | 164° |
| 2026-04-30 11:08 | 36.91391 | -4.79197 | 5720 ft | 205 kts | 160° |
| 2026-04-30 11:08 | 36.90055 | -4.78613 | 5467 ft | 198 kts | 160° |
| 2026-04-30 11:09 | 36.88761 | -4.78050 | 5239 ft | 198 kts | 160° |
| 2026-04-30 11:09 | 36.87459 | -4.77472 | 4988 ft | 196 kts | 158° |
| 2026-04-30 11:09 | 36.86360 | -4.76466 | 4889 ft | 196 kts | 133° |
| 2026-04-30 11:09 | 36.85466 | -4.75181 | 4894 ft | 196 kts | 131° |
| 2026-04-30 11:10 | 36.84564 | -4.73907 | 4894 ft | 196 kts | 131° |
| 2026-04-30 11:10 | 36.83642 | -4.72611 | 4657 ft | 199 kts | 131° |
| 2026-04-30 11:10 | 36.82736 | -4.71332 | 4383 ft | 192 kts | 131° |
| 2026-04-30 11:10 | 36.81846 | -4.70079 | 4134 ft | 192 kts | 131° |
| 2026-04-30 11:11 | 36.80959 | -4.68829 | 3872 ft | 192 kts | 131° |
| 2026-04-30 11:11 | 36.80071 | -4.67578 | 3606 ft | 191 kts | 131° |
| 2026-04-30 11:11 | 36.79196 | -4.66348 | 3344 ft | 190 kts | 131° |
| 2026-04-30 11:11 | 36.78317 | -4.65110 | 3081 ft | 189 kts | 131° |
| 2026-04-30 11:12 | 36.77438 | -4.63874 | 2814 ft | 188 kts | 131° |
| 2026-04-30 11:12 | 36.76582 | -4.62669 | 2558 ft | 182 kts | 132° |
| 2026-04-30 11:12 | 36.75777 | -4.61537 | 2335 ft | 164 kts | 132° |
| 2026-04-30 11:12 | 36.75024 | -4.60478 | 2090 ft | 162 kts | 132° |
| 2026-04-30 11:13 | 36.74280 | -4.59434 | 1864 ft | 160 kts | 132° |
| 2026-04-30 11:13 | 36.73546 | -4.58403 | 1643 ft | 159 kts | 132° |
| 2026-04-30 11:13 | 36.72803 | -4.57362 | 1420 ft | 158 kts | 131° |
| 2026-04-30 11:13 | 36.72074 | -4.56338 | 1201 ft | 158 kts | 131° |
| 2026-04-30 11:14 | 36.71368 | -4.55348 | 995 ft | 143 kts | 130° |
| 2026-04-30 11:14 | 36.70729 | -4.54454 | 810 ft | 134 kts | 130° |
| 2026-04-30 11:14 | 36.70114 | -4.53592 | 600 ft | 130 kts | 129° |
| 2026-04-30 11:14 | 36.69513 | -4.52748 | 424 ft | 131 kts | 128° |
| 2026-04-30 11:15 | 36.68905 | -4.51892 | 245 ft | 133 kts | 128° |
| 2026-04-30 11:15 | 36.68288 | -4.51037 | 78 ft | 128 kts | 127° |
| 2026-04-30 11:15 | 36.67755 | -4.50279 | 52 ft | 95 kts | 129° |
| 2026-04-30 11:15 | 36.67521 | -4.49951 | 53 ft | 18 kts | 131° |
| 2026-04-30 11:16 | 36.67467 | -4.49877 | 52 ft | 6 kts | 132° |
| 2026-04-30 11:16 | 36.67466 | -4.49875 | 52 ft | 2 kts | 131° |